TRINITY LAKE (CLE)

Elevation: 2370' · TRINITY R basin · Operator: US Bureau of Reclamation

Provisional data, subject to change.
Query executed Monday at 17:05:51   clock

Select a sensor type for a plot of data.
Note: Reservoir Flows are daily averages.

Earlier

Date RES ELE    STORAGE    RES CHG    OUTFLOW    INFLOW    EVAP    FNF    RIV REL    PPT INC    SPILL    DIS PWR   
 FEET   AF   AF   CFS   CFS   CFS   CFS   CFS   INCHES   CFS   CFS  
08/24/2014 2221.09 727669 -5542 2591 -146 57 -146 0 0.00 0 2591
08/25/2014 2220.27 721799 -5870 3177 277 59 277 0 0.00 0 3177
08/26/2014 2219.33 715110 -6689 3406 94 60 94 0 0.00 0 3406
08/27/2014 2218.65 710303 -4807 2195 -168 60 -168 0 0.00 0 2195
08/28/2014 2218.04 706010 -4293 2264 164 64 164 0 0.00 0 2264
08/29/2014 2217.47 702030 -3980 1791 -161 55 -161 0 0.00 0 1791
08/30/2014 2217.11 699518 -2512 1011 -192 63 -192 0 0.00 0 1011
08/31/2014 2216.82 697505 -2013 1044 90 61 90 0 0.00 0 1044
09/01/2014 2216.48 695154 -2351 1366 220 39 220 0 0.00 0 1366
09/02/2014 2216.13 692733 -2421 1204 46 63 46 0 0.00 0 1204
09/03/2014 2215.77 690257 -2476 1254 71 65 71 0 0.00 0 1254
09/04/2014 2215.35 687378 -2879 1400 13 64 13 0 0.00 0 1400
09/05/2014 2215.03 685184 -2194 1057 13 62 13 0 0.00 0 1057
09/06/2014 2214.67 682736 -2448 1220 34 48 34 0 0.00 0 1220
09/07/2014 2214.33 680425 -2311 1123 18 60 45 e 0 0.00 0 1123
09/08/2014 2214.03 678387 -2038 1038 71 60 45 e 0 0.00 0 1038
09/09/2014 2213.68 676028 -2359 1226 85 48 29 e 0 0.00 0 1226
09/10/2014 2213.24 673064 -2964 1679 227 42 29 e 0 0.00 0 1679
09/11/2014 2212.87 670580 -2484 1001 -223 28 -27 e 475 0.00 0 526
09/12/2014 2212.39 667377 -3203 1512 -44 59 -27 e 491 0.00 0 1021
09/13/2014 2212.04 665041 -2336 1162 37 53 -27 e 491 0.00 0 671
09/14/2014 2211.75 663120 -1921 755 -168 45 -27 e 468 0.00 0 287
09/15/2014 2211.55 661797 -1323 627 9 49 42 e 327 0.00 0 300
09/16/2014 2211.23 659680 -2117 1321 304 50 42 1129 0.00 0 192
09/17/2014 2210.32 653701 -5979 3073 109 50 42 2700 0.00 0 373
09/18/2014 2209.30 647049 -6652 3059 -255 40 42 1402 0.02 0 1657
09/19/2014 2208.35 640896 -6153 3080 -3 19 -- 1307 0.00 0 1773
09/20/2014 2206.75 630616 -10280 3606 -- 36 -- 1889 0.00 0 1717
09/21/2014 2238.21 -- -- -- -- -- -- 1969 0.00 0 1364
09/22/2014 -- -- -- -- -- -- -- -- -- -- --

Later | Latest

Warning! This data is preliminary and subject to revision.

Download Data Now Download Data Now | Show CLE Map | Plot CLE Data | 1 Month CLE Data | Real-Time CLE Data | CLE Info